Time;durP1;ratioP1;P1;durP2;ratioP2;P2;SDS_P1;SDS_P2;PMS_P1;PMS_P2;Temp;Humidity;BMP_temperature;BMP_pressure;BME280_temperature;BME280_humidity;BME280_pressure;Samples;Min_cycle;Max_cycle;Signal;HPM_P1;HPM_P2
2022/01/16 00:00:04;;;;;;;17.90;14.87;;;;;;;;;;2055587;28;20281;-59
2022/01/16 00:01:22;;;;;;;16.43;13.80;;;;;;;;;;2052781;28;20190;-61
2022/01/16 00:05:00;;;;;;;19.73;15.63;;;;;;;;;;2057853;28;20240;-59
2022/01/16 00:06:01;;;;;;;17.07;15.23;;;;;;;;;;2057786;28;20689;-57
2022/01/16 00:07:04;;;;;;;21.43;17.13;;;;;;;;;;2057635;28;20210;-61
2022/01/16 00:08:04;;;;;;;22.07;17.50;;;;;;;;;;2057884;28;20274;-59
2022/01/16 00:09:04;;;;;;;18.33;16.07;;;;;;;;;;2058292;28;20198;-60
2022/01/16 00:10:06;;;;;;;20.03;17.27;;;;;;;;;;2058905;28;20167;-60
2022/01/16 00:11:07;;;;;;;21.87;18.00;;;;;;;;;;2056712;28;20265;-55
2022/01/16 00:12:08;;;;;;;19.53;16.87;;;;;;;;;;2057808;28;20688;-60
2022/01/16 00:13:08;;;;;;;18.90;16.80;;;;;;;;;;2057487;28;20194;-58
2022/01/16 00:14:09;;;;;;;21.27;17.07;;;;;;;;;;2058223;28;20631;-60
2022/01/16 00:15:09;;;;;;;19.10;16.67;;;;;;;;;;2057792;28;20190;-60
2022/01/16 00:16:13;;;;;;;20.23;17.23;;;;;;;;;;2058460;28;20274;-58
2022/01/16 00:17:13;;;;;;;21.53;17.80;;;;;;;;;;2059464;28;20213;-59
2022/01/16 00:18:26;;;;;;;20.40;17.20;;;;;;;;;;2054998;28;20266;-59
2022/01/16 00:19:26;;;;;;;20.43;17.33;;;;;;;;;;2058650;28;20179;-54
2022/01/16 00:20:27;;;;;;;20.50;16.93;;;;;;;;;;2056578;28;20178;-60
2022/01/16 00:21:28;;;;;;;18.33;16.33;;;;;;;;;;2057871;28;20185;-60
2022/01/16 00:22:33;;;;;;;19.17;17.13;;;;;;;;;;2057342;28;20262;-60
2022/01/16 00:23:33;;;;;;;20.70;17.20;;;;;;;;;;2059214;28;20178;-59
2022/01/16 00:24:34;;;;;;;19.53;17.40;;;;;;;;;;2059503;28;20277;-61
2022/01/16 00:25:34;;;;;;;19.00;16.40;;;;;;;;;;2059608;28;20639;-59
2022/01/16 00:26:38;;;;;;;21.73;17.80;;;;;;;;;;2059996;28;20217;-60
2022/01/16 00:27:38;;;;;;;19.47;16.27;;;;;;;;;;2056953;28;20202;-58
2022/01/16 00:28:39;;;;;;;19.40;16.90;;;;;;;;;;2059788;28;20171;-58
2022/01/16 00:29:40;;;;;;;20.13;16.73;;;;;;;;;;2057321;28;20206;-59
2022/01/16 00:30:40;;;;;;;18.97;16.93;;;;;;;;;;2057275;28;20261;-61
2022/01/16 00:31:41;;;;;;;19.53;16.83;;;;;;;;;;2058315;28;20206;-60
2022/01/16 00:32:42;;;;;;;19.23;16.60;;;;;;;;;;2057253;28;20189;-58
2022/01/16 00:33:44;;;;;;;18.37;15.80;;;;;;;;;;2056637;28;20197;-58
2022/01/16 00:34:45;;;;;;;21.37;17.07;;;;;;;;;;2053062;28;20263;-61
2022/01/16 00:35:45;;;;;;;18.80;16.67;;;;;;;;;;2056800;28;20178;-60
2022/01/16 00:36:46;;;;;;;18.90;16.63;;;;;;;;;;2060146;28;20630;-59
2022/01/16 00:37:48;;;;;;;19.33;17.33;;;;;;;;;;2062604;28;20162;-58
2022/01/16 00:38:49;;;;;;;18.40;16.30;;;;;;;;;;2053710;28;20182;-58
2022/01/16 00:39:49;;;;;;;18.27;16.00;;;;;;;;;;2056815;28;20761;-58
2022/01/16 00:40:49;;;;;;;19.43;16.80;;;;;;;;;;2058893;28;20221;-60
2022/01/16 00:41:50;;;;;;;19.00;15.80;;;;;;;;;;2053826;28;20453;-60
2022/01/16 00:42:50;;;;;;;18.00;16.07;;;;;;;;;;2053739;28;20177;-60
2022/01/16 00:43:51;;;;;;;19.30;16.23;;;;;;;;;;2058477;28;20277;-58
2022/01/16 00:44:52;;;;;;;20.17;16.47;;;;;;;;;;2057294;28;20174;-59
2022/01/16 00:45:52;;;;;;;18.87;16.47;;;;;;;;;;2057486;28;20183;-61
2022/01/16 00:46:52;;;;;;;26.53;19.90;;;;;;;;;;2057012;28;20198;-59
2022/01/16 00:47:53;;;;;;;20.67;18.33;;;;;;;;;;2049128;29;20203;-58
2022/01/16 00:48:53;;;;;;;24.73;20.20;;;;;;;;;;2058984;28;20184;-59
2022/01/16 00:49:54;;;;;;;23.80;19.73;;;;;;;;;;2057915;28;20193;-60
2022/01/16 00:50:54;;;;;;;25.10;19.37;;;;;;;;;;2057017;28;20183;-59
2022/01/16 00:51:54;;;;;;;24.27;19.07;;;;;;;;;;2057050;28;20182;-59
2022/01/16 00:52:55;;;;;;;26.10;20.93;;;;;;;;;;2058518;28;20162;-58
2022/01/16 00:53:55;;;;;;;24.13;20.67;;;;;;;;;;2057461;28;20217;-59
2022/01/16 00:54:58;;;;;;;26.13;21.23;;;;;;;;;;2059174;28;20183;-60
2022/01/16 00:55:59;;;;;;;25.60;21.10;;;;;;;;;;2054177;28;20273;-59
2022/01/16 00:56:59;;;;;;;26.43;20.20;;;;;;;;;;2057749;28;20198;-57
2022/01/16 00:57:59;;;;;;;27.30;21.63;;;;;;;;;;2058685;28;20169;-60
2022/01/16 00:58:59;;;;;;;29.77;22.13;;;;;;;;;;2058642;28;20581;-63
2022/01/16 01:00:00;;;;;;;26.37;20.73;;;;;;;;;;2058126;28;20671;-59
2022/01/16 01:01:00;;;;;;;27.17;21.37;;;;;;;;;;2056092;28;20190;-59
2022/01/16 01:02:01;;;;;;;28.47;21.43;;;;;;;;;;2049215;28;20178;-61
2022/01/16 01:03:01;;;;;;;29.27;22.83;;;;;;;;;;2058094;28;20666;-59
2022/01/16 01:04:02;;;;;;;28.83;21.90;;;;;;;;;;2057413;28;20870;-60
2022/01/16 01:05:02;;;;;;;29.70;21.73;;;;;;;;;;2058936;28;20185;-60
2022/01/16 01:06:02;;;;;;;29.23;21.30;;;;;;;;;;2054037;28;20265;-58
2022/01/16 01:07:03;;;;;;;26.00;20.80;;;;;;;;;;2058350;28;20236;-58
2022/01/16 01:08:04;;;;;;;27.73;20.60;;;;;;;;;;2053749;28;20187;-59
2022/01/16 01:09:04;;;;;;;26.53;21.40;;;;;;;;;;2058670;28;20261;-59
2022/01/16 01:10:05;;;;;;;27.20;21.73;;;;;;;;;;2056774;28;20188;-60
2022/01/16 01:11:11;;;;;;;32.40;23.20;;;;;;;;;;2057155;28;20254;-54
2022/01/16 01:12:20;;;;;;;32.57;22.87;;;;;;;;;;2053533;28;20170;-59
2022/01/16 01:13:31;;;;;;;30.13;22.77;;;;;;;;;;2059971;28;20177;-57
2022/01/16 01:14:52;;;;;;;28.73;21.47;;;;;;;;;;2056889;28;20237;-60
2022/01/16 01:15:59;;;;;;;29.40;21.20;;;;;;;;;;2052484;28;20233;-58
2022/01/16 01:17:01;;;;;;;31.77;21.93;;;;;;;;;;2057411;28;20198;-57
2022/01/16 01:18:02;;;;;;;31.77;23.00;;;;;;;;;;2052366;28;20201;-59
2022/01/16 01:19:02;;;;;;;25.73;19.50;;;;;;;;;;2056742;28;20565;-59
2022/01/16 01:20:04;;;;;;;28.73;20.73;;;;;;;;;;2049562;29;20240;-60
2022/01/16 01:21:13;;;;;;;26.40;20.13;;;;;;;;;;2054020;28;20651;-60
2022/01/16 01:22:13;;;;;;;26.97;20.63;;;;;;;;;;2054871;28;20603;-61
2022/01/16 01:23:13;;;;;;;24.13;20.13;;;;;;;;;;2057035;28;20269;-58
2022/01/16 01:24:14;;;;;;;30.00;21.33;;;;;;;;;;2058353;28;20186;-58
2022/01/16 01:25:14;;;;;;;23.83;19.60;;;;;;;;;;2054418;28;20651;-60
2022/01/16 01:26:15;;;;;;;24.97;19.63;;;;;;;;;;2055016;28;20237;-58
2022/01/16 01:27:23;;;;;;;25.27;18.50;;;;;;;;;;2056832;28;20190;-61
2022/01/16 01:28:23;;;;;;;25.00;19.80;;;;;;;;;;2057714;28;20166;-58
2022/01/16 01:29:27;;;;;;;22.93;18.50;;;;;;;;;;2057504;28;20265;-58
2022/01/16 01:30:28;;;;;;;25.90;18.07;;;;;;;;;;2057357;28;20209;-61
2022/01/16 01:31:30;;;;;;;26.47;19.10;;;;;;;;;;2057457;28;20253;-59
2022/01/16 01:32:31;;;;;;;24.30;19.00;;;;;;;;;;2058984;28;20180;-58
2022/01/16 01:33:32;;;;;;;23.33;17.57;;;;;;;;;;2051679;28;20195;-60
2022/01/16 01:34:32;;;;;;;22.97;17.43;;;;;;;;;;2057990;28;20604;-59
2022/01/16 01:35:39;;;;;;;25.50;17.40;;;;;;;;;;2059220;28;20217;-60
2022/01/16 01:36:40;;;;;;;24.90;17.00;;;;;;;;;;2054141;28;20551;-57
2022/01/16 01:37:41;;;;;;;26.13;17.00;;;;;;;;;;2058613;28;20178;-60
2022/01/16 01:38:41;;;;;;;27.23;17.30;;;;;;;;;;2058141;28;20261;-64
2022/01/16 01:39:41;;;;;;;27.10;15.13;;;;;;;;;;2059208;28;20517;-60
2022/01/16 01:40:41;;;;;;;33.37;17.27;;;;;;;;;;2056949;28;20181;-59
2022/01/16 01:41:42;;;;;;;43.30;16.83;;;;;;;;;;2059849;28;20189;-59
2022/01/16 01:51:06;;;;;;;51.20;18.20;;;;;;;;;;2054808;28;20241;-59
2022/01/16 01:52:07;;;;;;;49.47;18.40;;;;;;;;;;2057066;28;20420;-59
2022/01/16 01:53:07;;;;;;;40.73;19.77;;;;;;;;;;2049485;28;20433;-57
2022/01/16 01:54:08;;;;;;;38.07;21.37;;;;;;;;;;2056980;28;20261;-65
2022/01/16 01:55:08;;;;;;;51.90;20.47;;;;;;;;;;2054306;28;20224;-57
2022/01/16 01:56:09;;;;;;;49.33;21.83;;;;;;;;;;2056020;28;20198;-59
2022/01/16 01:57:10;;;;;;;41.60;20.77;;;;;;;;;;2055484;28;20202;-59
2022/01/16 01:58:11;;;;;;;39.10;21.13;;;;;;;;;;2057054;28;20191;-58
2022/01/16 01:59:12;;;;;;;35.37;21.90;;;;;;;;;;2057809;28;20186;-61
2022/01/16 02:00:17;;;;;;;38.77;22.03;;;;;;;;;;2047419;28;20720;-60
2022/01/16 02:01:17;;;;;;;44.77;23.13;;;;;;;;;;2048694;28;20632;-59
2022/01/16 02:02:18;;;;;;;43.67;20.00;;;;;;;;;;2049344;29;20187;-58
2022/01/16 02:04:54;;;;;;;47.57;21.00;;;;;;;;;;2058589;28;20190;-59
2022/01/16 02:05:54;;;;;;;45.30;22.70;;;;;;;;;;2063942;28;20447;-57
2022/01/16 02:06:54;;;;;;;44.03;23.17;;;;;;;;;;2063677;28;20224;-59
2022/01/16 02:07:55;;;;;;;39.10;23.53;;;;;;;;;;2054675;28;20194;-61
2022/01/16 02:08:56;;;;;;;36.00;21.80;;;;;;;;;;2058751;28;20236;-58
2022/01/16 02:09:56;;;;;;;41.97;21.53;;;;;;;;;;2057919;28;20194;-59
2022/01/16 02:10:59;;;;;;;48.50;23.53;;;;;;;;;;2057565;28;20185;-59
2022/01/16 02:12:01;;;;;;;51.13;23.50;;;;;;;;;;2057655;28;20197;-58
2022/01/16 02:13:04;;;;;;;37.90;21.30;;;;;;;;;;2058052;28;20419;-58
2022/01/16 02:14:12;;;;;;;41.60;21.53;;;;;;;;;;2057385;28;20432;-60
2022/01/16 02:15:38;;;;;;;40.50;24.00;;;;;;;;;;2058234;28;20178;-59
2022/01/16 02:28:10;;;;;;;57.23;22.00;;;;;;;;;;2050199;28;20412;-57
2022/01/16 02:31:26;;;;;;;39.97;20.80;;;;;;;;;;2056819;28;20276;-61
2022/01/16 02:34:46;;;;;;;39.40;21.97;;;;;;;;;;2050989;28;20166;-58
2022/01/16 02:35:49;;;;;;;37.13;20.70;;;;;;;;;;2054826;28;20206;-59
2022/01/16 02:36:51;;;;;;;61.47;23.30;;;;;;;;;;2057153;28;20225;-58
2022/01/16 02:37:52;;;;;;;44.77;20.97;;;;;;;;;;2048234;28;20175;-60
2022/01/16 02:38:55;;;;;;;54.90;24.37;;;;;;;;;;2043930;28;20198;-58
2022/01/16 02:40:02;;;;;;;47.50;22.20;;;;;;;;;;2058103;28;20202;-59
2022/01/16 02:41:04;;;;;;;53.53;22.40;;;;;;;;;;2055872;28;20584;-59
2022/01/16 02:42:05;;;;;;;47.13;23.77;;;;;;;;;;2053538;28;20170;-59
2022/01/16 02:43:06;;;;;;;45.93;22.87;;;;;;;;;;2057766;28;20416;-58
2022/01/16 02:44:21;;;;;;;44.50;22.30;;;;;;;;;;2057482;28;20177;-59
2022/01/16 02:45:30;;;;;;;52.47;23.97;;;;;;;;;;2052694;28;20175;-59
2022/01/16 02:47:31;;;;;;;44.13;23.50;;;;;;;;;;2055203;28;20448;-59
2022/01/16 02:48:32;;;;;;;57.47;24.93;;;;;;;;;;2055732;28;20729;-58
2022/01/16 02:49:33;;;;;;;52.90;24.77;;;;;;;;;;2057533;28;20167;-59
2022/01/16 02:50:34;;;;;;;55.80;25.83;;;;;;;;;;2056739;28;20182;-59
2022/01/16 02:51:34;;;;;;;53.03;25.43;;;;;;;;;;2056322;28;20249;-57
2022/01/16 02:52:34;;;;;;;56.60;25.00;;;;;;;;;;2057139;28;20647;-60
2022/01/16 02:53:35;;;;;;;51.73;25.27;;;;;;;;;;2057674;28;20181;-56
2022/01/16 02:54:37;;;;;;;51.03;26.27;;;;;;;;;;2057370;28;20540;-57
2022/01/16 02:55:43;;;;;;;55.67;26.60;;;;;;;;;;2055698;28;20186;-55
2022/01/16 02:56:45;;;;;;;51.70;25.27;;;;;;;;;;2050320;28;20183;-57
2022/01/16 02:57:46;;;;;;;55.10;26.37;;;;;;;;;;2056974;28;20205;-56
2022/01/16 02:58:47;;;;;;;53.20;26.30;;;;;;;;;;2057310;28;20530;-58
2022/01/16 02:59:49;;;;;;;56.00;27.70;;;;;;;;;;2057497;28;20189;-59
2022/01/16 03:00:49;;;;;;;53.37;26.63;;;;;;;;;;2057095;28;20188;-58
2022/01/16 03:01:49;;;;;;;54.30;26.63;;;;;;;;;;2057218;28;20682;-59
2022/01/16 03:02:50;;;;;;;54.13;26.33;;;;;;;;;;2056803;28;20174;-57
2022/01/16 03:03:50;;;;;;;52.33;26.53;;;;;;;;;;2056727;28;20182;-58
2022/01/16 03:04:51;;;;;;;59.97;26.97;;;;;;;;;;2056849;28;20182;-58
2022/01/16 03:05:51;;;;;;;50.37;25.10;;;;;;;;;;2054794;28;20304;-57
2022/01/16 03:06:51;;;;;;;52.93;25.63;;;;;;;;;;2057449;28;20658;-58
2022/01/16 03:07:51;;;;;;;52.97;26.40;;;;;;;;;;2053148;28;20190;-59
2022/01/16 03:08:52;;;;;;;65.83;27.33;;;;;;;;;;2056648;28;20205;-60
2022/01/16 03:11:35;;;;;;;55.40;26.73;;;;;;;;;;2052760;28;20210;-59
2022/01/16 03:12:35;;;;;;;58.30;25.87;;;;;;;;;;2065842;28;20178;-59
2022/01/16 03:13:39;;;;;;;53.00;23.57;;;;;;;;;;2063270;28;20221;-62
2022/01/16 03:14:39;;;;;;;56.43;27.53;;;;;;;;;;2059641;28;20221;-59
2022/01/16 03:15:39;;;;;;;51.70;25.67;;;;;;;;;;2059141;28;20642;-58
2022/01/16 03:16:43;;;;;;;56.50;26.30;;;;;;;;;;2060895;28;20249;-57
2022/01/16 03:21:55;;;;;;;58.57;27.63;;;;;;;;;;2050836;28;20179;-58
2022/01/16 03:22:55;;;;;;;52.07;27.27;;;;;;;;;;2054121;28;20191;-58
2022/01/16 03:23:55;;;;;;;61.83;29.33;;;;;;;;;;2059864;28;20182;-59
2022/01/16 03:24:55;;;;;;;55.83;27.37;;;;;;;;;;2060113;28;20182;-58
2022/01/16 03:25:56;;;;;;;55.67;26.03;;;;;;;;;;2059754;28;20213;-57
2022/01/16 03:26:58;;;;;;;63.60;28.93;;;;;;;;;;2057064;28;20663;-56
2022/01/16 03:27:58;;;;;;;65.27;29.13;;;;;;;;;;2058376;28;20186;-57
2022/01/16 03:28:58;;;;;;;63.87;29.43;;;;;;;;;;2059055;28;20293;-58
2022/01/16 03:30:00;;;;;;;61.43;29.60;;;;;;;;;;2058731;28;20178;-57
2022/01/16 03:31:01;;;;;;;62.47;29.73;;;;;;;;;;2058866;28;20194;-58
2022/01/16 03:32:03;;;;;;;56.33;29.03;;;;;;;;;;2049434;28;20210;-59
2022/01/16 03:33:04;;;;;;;61.90;30.00;;;;;;;;;;2050189;28;20242;-57
2022/01/16 03:34:04;;;;;;;59.97;30.00;;;;;;;;;;2058859;28;20174;-58
2022/01/16 03:35:05;;;;;;;67.97;29.87;;;;;;;;;;2059071;28;20236;-58
2022/01/16 03:36:05;;;;;;;60.13;29.27;;;;;;;;;;2058244;28;20241;-59
2022/01/16 03:37:06;;;;;;;60.57;28.97;;;;;;;;;;2055753;28;20218;-59
2022/01/16 03:38:06;;;;;;;65.20;31.17;;;;;;;;;;2056069;28;20175;-58
2022/01/16 03:39:06;;;;;;;62.97;31.33;;;;;;;;;;2058503;28;20182;-58
2022/01/16 03:40:10;;;;;;;62.50;31.83;;;;;;;;;;2056096;28;20186;-59
2022/01/16 03:41:10;;;;;;;63.67;30.63;;;;;;;;;;2060391;28;20212;-60
2022/01/16 03:42:11;;;;;;;66.50;32.00;;;;;;;;;;2058900;28;20189;-58
2022/01/16 03:43:13;;;;;;;66.57;31.77;;;;;;;;;;2058846;28;20185;-59
2022/01/16 03:44:14;;;;;;;69.30;31.87;;;;;;;;;;2052219;28;20191;-59
2022/01/16 03:45:14;;;;;;;71.47;32.87;;;;;;;;;;2056894;28;20170;-57
2022/01/16 03:46:14;;;;;;;69.90;34.33;;;;;;;;;;2059628;28;20560;-58
2022/01/16 03:47:15;;;;;;;69.13;32.40;;;;;;;;;;2056990;28;20349;-59
2022/01/16 03:48:16;;;;;;;69.77;31.57;;;;;;;;;;2057888;28;20182;-59
2022/01/16 03:49:18;;;;;;;66.00;34.20;;;;;;;;;;2057504;28;20182;-57
2022/01/16 03:50:18;;;;;;;68.50;34.17;;;;;;;;;;2057964;28;20288;-58
2022/01/16 03:51:19;;;;;;;63.60;28.77;;;;;;;;;;2057986;28;20694;-60
2022/01/16 03:52:19;;;;;;;62.17;31.27;;;;;;;;;;2057461;28;20182;-59
2022/01/16 03:53:19;;;;;;;67.70;33.90;;;;;;;;;;2057504;28;20182;-58
2022/01/16 03:54:21;;;;;;;65.10;33.43;;;;;;;;;;2057450;28;20269;-60
2022/01/16 03:55:21;;;;;;;69.87;35.23;;;;;;;;;;2057080;28;20178;-59
2022/01/16 03:56:21;;;;;;;59.37;32.33;;;;;;;;;;2056193;28;20201;-58
2022/01/16 03:57:22;;;;;;;68.10;34.63;;;;;;;;;;2055442;28;20242;-59
2022/01/16 03:58:22;;;;;;;62.73;33.53;;;;;;;;;;2055822;28;20179;-60
2022/01/16 03:59:22;;;;;;;72.93;36.13;;;;;;;;;;2056026;28;20520;-59
2022/01/16 04:00:23;;;;;;;71.50;37.10;;;;;;;;;;2055812;28;20562;-59
2022/01/16 04:01:24;;;;;;;70.53;36.40;;;;;;;;;;2056883;28;20182;-61
2022/01/16 04:02:24;;;;;;;67.13;36.83;;;;;;;;;;2057832;28;20190;-59
2022/01/16 04:03:25;;;;;;;73.20;36.60;;;;;;;;;;2057733;28;20178;-59
2022/01/16 04:04:25;;;;;;;70.90;36.83;;;;;;;;;;2053956;28;20182;-60
2022/01/16 04:05:25;;;;;;;73.03;34.80;;;;;;;;;;2056025;28;20186;-58
2022/01/16 04:06:26;;;;;;;69.07;37.07;;;;;;;;;;2053299;28;20198;-59
2022/01/16 04:07:32;;;;;;;70.03;35.37;;;;;;;;;;2056045;28;20199;-60
2022/01/16 04:08:32;;;;;;;78.50;38.27;;;;;;;;;;2058889;28;20169;-57
2022/01/16 04:09:32;;;;;;;76.83;36.97;;;;;;;;;;2057956;28;20194;-60
2022/01/16 04:10:32;;;;;;;71.33;35.17;;;;;;;;;;2058542;28;20186;-59
2022/01/16 04:11:33;;;;;;;73.50;35.33;;;;;;;;;;2057816;28;20557;-58
2022/01/16 04:12:35;;;;;;;85.30;39.23;;;;;;;;;;2058009;28;20666;-59
2022/01/16 04:13:36;;;;;;;72.63;35.93;;;;;;;;;;2054096;28;20175;-59
2022/01/16 04:15:45;;;;;;;67.87;33.33;;;;;;;;;;2057706;28;20170;-58
2022/01/16 04:16:46;;;;;;;75.50;39.37;;;;;;;;;;2054037;28;20202;-58
2022/01/16 04:17:46;;;;;;;78.63;38.60;;;;;;;;;;2056923;28;20182;-57
2022/01/16 04:18:51;;;;;;;81.40;37.13;;;;;;;;;;2058834;28;20159;-58
2022/01/16 04:19:51;;;;;;;71.73;35.77;;;;;;;;;;2055270;28;20236;-58
2022/01/16 04:20:52;;;;;;;79.63;38.03;;;;;;;;;;2057829;28;20635;-59
2022/01/16 04:21:52;;;;;;;77.53;36.90;;;;;;;;;;2057338;28;20221;-59
2022/01/16 04:22:52;;;;;;;80.83;39.80;;;;;;;;;;2059652;28;20178;-59
2022/01/16 04:23:53;;;;;;;86.70;38.33;;;;;;;;;;2060467;28;20229;-59
2022/01/16 04:24:53;;;;;;;74.40;37.37;;;;;;;;;;2061560;28;20178;-59
2022/01/16 04:25:54;;;;;;;82.50;39.00;;;;;;;;;;2061717;28;20244;-59
2022/01/16 04:26:54;;;;;;;81.73;39.17;;;;;;;;;;2060399;28;20284;-59
2022/01/16 04:27:54;;;;;;;85.67;41.83;;;;;;;;;;2061237;28;20170;-63
2022/01/16 04:28:55;;;;;;;81.10;38.40;;;;;;;;;;2055755;28;20194;-60
2022/01/16 04:29:55;;;;;;;81.93;39.80;;;;;;;;;;2061254;28;20197;-65
2022/01/16 04:30:55;;;;;;;79.23;37.23;;;;;;;;;;2060561;28;20194;-60
2022/01/16 04:31:56;;;;;;;73.80;34.03;;;;;;;;;;2057979;28;20206;-60
2022/01/16 04:32:56;;;;;;;70.83;38.63;;;;;;;;;;2060187;28;20281;-60
2022/01/16 04:33:56;;;;;;;78.23;38.17;;;;;;;;;;2058336;28;20190;-57
2022/01/16 04:34:57;;;;;;;82.87;41.83;;;;;;;;;;2057278;28;20174;-59
2022/01/16 04:35:57;;;;;;;80.50;39.07;;;;;;;;;;2057131;28;20205;-59
2022/01/16 04:36:57;;;;;;;66.93;31.20;;;;;;;;;;2056462;28;20204;-59
2022/01/16 04:37:57;;;;;;;77.10;37.77;;;;;;;;;;2052081;28;20214;-58
2022/01/16 04:38:58;;;;;;;74.30;36.67;;;;;;;;;;2056995;28;20674;-58
2022/01/16 04:40:03;;;;;;;80.60;37.93;;;;;;;;;;2057825;28;20174;-59
2022/01/16 04:43:52;;;;;;;77.27;36.23;;;;;;;;;;2056991;28;20185;-58
2022/01/16 04:44:52;;;;;;;84.30;40.23;;;;;;;;;;2056325;28;20173;-58
2022/01/16 04:45:53;;;;;;;78.23;38.40;;;;;;;;;;2056711;28;20226;-59
2022/01/16 04:46:53;;;;;;;73.47;35.87;;;;;;;;;;2056800;28;20206;-60
2022/01/16 04:47:53;;;;;;;75.50;40.03;;;;;;;;;;2056703;28;20232;-59
2022/01/16 04:48:55;;;;;;;80.93;41.30;;;;;;;;;;2057977;28;20166;-59
2022/01/16 04:49:55;;;;;;;77.20;35.07;;;;;;;;;;2057115;28;20178;-60
2022/01/16 04:50:55;;;;;;;82.07;37.97;;;;;;;;;;2058001;28;20204;-57
2022/01/16 04:51:56;;;;;;;87.10;41.43;;;;;;;;;;2057232;28;20749;-59
2022/01/16 04:52:56;;;;;;;84.13;43.60;;;;;;;;;;2057276;28;20184;-60
2022/01/16 04:53:56;;;;;;;87.27;42.53;;;;;;;;;;2057088;28;20224;-63
2022/01/16 04:54:56;;;;;;;84.00;41.07;;;;;;;;;;2057613;28;20186;-61
2022/01/16 04:55:57;;;;;;;86.70;41.37;;;;;;;;;;2059730;28;20540;-59
2022/01/16 04:56:57;;;;;;;80.77;38.47;;;;;;;;;;2056278;28;20213;-61
2022/01/16 04:57:57;;;;;;;89.27;43.47;;;;;;;;;;2061757;28;20174;-60
2022/01/16 04:58:58;;;;;;;74.27;36.73;;;;;;;;;;2062101;28;20714;-60
2022/01/16 04:59:58;;;;;;;86.27;40.70;;;;;;;;;;2061632;28;20214;-58
2022/01/16 05:00:58;;;;;;;83.77;41.87;;;;;;;;;;2059216;28;21617;-59
2022/01/16 05:01:58;;;;;;;91.63;45.13;;;;;;;;;;2056094;28;20209;-60
2022/01/16 05:02:59;;;;;;;81.00;39.93;;;;;;;;;;2057824;28;20191;-57
2022/01/16 05:03:59;;;;;;;82.97;40.83;;;;;;;;;;2052834;28;20182;-60
2022/01/16 05:04:59;;;;;;;84.60;42.67;;;;;;;;;;2057614;28;20264;-59
2022/01/16 05:06:00;;;;;;;85.00;42.00;;;;;;;;;;2058352;28;20249;-59
2022/01/16 05:07:00;;;;;;;76.90;37.77;;;;;;;;;;2057763;28;20202;-58
2022/01/16 05:08:00;;;;;;;86.47;39.57;;;;;;;;;;2056560;28;20182;-60
2022/01/16 05:09:01;;;;;;;76.87;38.20;;;;;;;;;;2058249;28;20194;-61
2022/01/16 05:10:01;;;;;;;86.13;39.60;;;;;;;;;;2058113;28;20217;-58
2022/01/16 05:11:02;;;;;;;85.80;41.93;;;;;;;;;;2053835;28;20217;-59
2022/01/16 05:12:08;;;;;;;82.60;38.63;;;;;;;;;;2058182;28;20178;-59
2022/01/16 05:16:58;;;;;;;83.83;37.97;;;;;;;;;;2054135;28;20237;-59
2022/01/16 05:18:00;;;;;;;83.93;39.70;;;;;;;;;;2056422;28;20429;-57
2022/01/16 05:19:08;;;;;;;81.40;38.07;;;;;;;;;;2056236;28;20185;-57
2022/01/16 05:20:09;;;;;;;80.83;37.60;;;;;;;;;;2053831;28;20201;-58
2022/01/16 05:21:09;;;;;;;81.07;39.00;;;;;;;;;;2057747;28;20412;-58
2022/01/16 05:22:10;;;;;;;87.73;39.53;;;;;;;;;;2057338;28;20186;-59
2022/01/16 05:23:10;;;;;;;77.97;37.50;;;;;;;;;;2056688;28;20592;-59
2022/01/16 05:24:11;;;;;;;82.43;36.07;;;;;;;;;;2056650;28;20189;-56
2022/01/16 05:25:14;;;;;;;84.80;40.73;;;;;;;;;;2057158;28;20206;-58
2022/01/16 05:26:17;;;;;;;86.97;42.30;;;;;;;;;;2053898;28;20244;-58
2022/01/16 05:27:17;;;;;;;90.37;44.47;;;;;;;;;;2054290;28;20260;-59
2022/01/16 05:28:17;;;;;;;86.93;42.33;;;;;;;;;;2056087;28;20182;-58
2022/01/16 05:29:18;;;;;;;85.77;43.33;;;;;;;;;;2056833;28;20749;-59
2022/01/16 05:30:18;;;;;;;89.70;42.43;;;;;;;;;;2056416;28;20237;-58
2022/01/16 05:31:18;;;;;;;88.57;42.07;;;;;;;;;;2056659;28;20580;-59
2022/01/16 05:32:18;;;;;;;87.40;43.37;;;;;;;;;;2056317;28;20253;-60
2022/01/16 05:33:19;;;;;;;88.40;43.97;;;;;;;;;;2056748;28;20180;-57
2022/01/16 05:34:19;;;;;;;86.90;45.17;;;;;;;;;;2055763;28;20192;-58
2022/01/16 05:35:19;;;;;;;94.33;43.97;;;;;;;;;;2056338;28;20273;-58
2022/01/16 05:36:20;;;;;;;87.93;42.63;;;;;;;;;;2056968;28;20174;-59
2022/01/16 05:37:20;;;;;;;94.07;44.23;;;;;;;;;;2054989;28;20309;-55
2022/01/16 05:38:21;;;;;;;94.67;43.40;;;;;;;;;;2055119;28;20650;-59
2022/01/16 05:39:21;;;;;;;86.13;40.93;;;;;;;;;;2057291;28;20734;-56
2022/01/16 05:40:21;;;;;;;79.97;40.00;;;;;;;;;;2056066;28;20277;-59
2022/01/16 05:41:22;;;;;;;85.17;41.87;;;;;;;;;;2056827;28;20174;-58
2022/01/16 05:42:22;;;;;;;92.20;44.50;;;;;;;;;;2057549;28;20528;-59
2022/01/16 05:43:22;;;;;;;82.57;40.13;;;;;;;;;;2057584;28;20170;-56
2022/01/16 05:44:22;;;;;;;89.63;43.17;;;;;;;;;;2057324;28;20544;-57
2022/01/16 05:45:23;;;;;;;88.20;45.03;;;;;;;;;;2057473;28;20621;-58
2022/01/16 05:46:23;;;;;;;89.90;42.43;;;;;;;;;;2057498;28;20527;-60
2022/01/16 05:47:23;;;;;;;79.67;41.00;;;;;;;;;;2063898;23;20360;-57
2022/01/16 05:48:26;;;;;;;82.90;42.27;;;;;;;;;;2055477;28;20178;-63
2022/01/16 05:49:26;;;;;;;89.30;40.87;;;;;;;;;;2057627;28;20182;-62
2022/01/16 05:50:26;;;;;;;87.20;41.87;;;;;;;;;;2057470;28;20170;-57
2022/01/16 05:51:26;;;;;;;82.13;41.27;;;;;;;;;;2057419;28;20242;-60
2022/01/16 05:52:27;;;;;;;82.77;42.27;;;;;;;;;;2056270;28;20257;-61
2022/01/16 05:53:27;;;;;;;87.07;41.20;;;;;;;;;;2057064;28;20174;-56
2022/01/16 05:54:27;;;;;;;84.60;42.47;;;;;;;;;;2056877;28;20209;-60
2022/01/16 05:55:33;;;;;;;81.20;41.83;;;;;;;;;;2057335;28;20174;-60
2022/01/16 05:56:33;;;;;;;83.90;42.77;;;;;;;;;;2057341;28;20228;-61
2022/01/16 05:57:34;;;;;;;86.13;42.63;;;;;;;;;;2056859;28;20201;-59
2022/01/16 05:58:34;;;;;;;85.70;41.77;;;;;;;;;;2057431;28;20185;-62
2022/01/16 05:59:34;;;;;;;76.87;40.37;;;;;;;;;;2057628;28;20729;-62
2022/01/16 06:00:36;;;;;;;77.23;39.80;;;;;;;;;;2057275;28;20167;-62
2022/01/16 06:01:36;;;;;;;83.93;41.73;;;;;;;;;;2057260;28;20174;-62
2022/01/16 06:02:37;;;;;;;73.10;36.83;;;;;;;;;;2057142;28;20426;-59
2022/01/16 06:03:37;;;;;;;79.73;40.60;;;;;;;;;;2057143;28;20166;-62
2022/01/16 06:04:37;;;;;;;82.03;41.70;;;;;;;;;;2056922;28;20182;-61
2022/01/16 06:05:37;;;;;;;81.50;42.10;;;;;;;;;;2054278;28;20187;-61
2022/01/16 06:06:38;;;;;;;83.40;43.27;;;;;;;;;;2055941;28;20261;-60
2022/01/16 06:07:41;;;;;;;74.97;40.83;;;;;;;;;;2055776;28;20265;-64
2022/01/16 06:08:41;;;;;;;85.07;42.97;;;;;;;;;;2057095;28;20261;-64
2022/01/16 06:09:41;;;;;;;87.23;40.80;;;;;;;;;;2056655;28;20170;-64
2022/01/16 06:10:42;;;;;;;84.17;40.03;;;;;;;;;;2056382;28;20614;-62
2022/01/16 06:11:42;;;;;;;83.20;41.90;;;;;;;;;;2057008;28;20222;-62
2022/01/16 06:12:42;;;;;;;88.57;42.97;;;;;;;;;;2056922;28;20542;-61
2022/01/16 06:13:43;;;;;;;88.43;43.10;;;;;;;;;;2056898;28;20182;-61
2022/01/16 06:14:43;;;;;;;87.83;40.60;;;;;;;;;;2057032;28;20182;-62
2022/01/16 06:15:46;;;;;;;82.63;42.43;;;;;;;;;;2057156;28;20544;-61
2022/01/16 06:16:46;;;;;;;85.87;41.67;;;;;;;;;;2056762;28;20193;-61
2022/01/16 06:17:47;;;;;;;87.77;42.53;;;;;;;;;;2056624;28;20217;-60
2022/01/16 06:18:47;;;;;;;82.73;41.77;;;;;;;;;;2056369;28;20543;-62
2022/01/16 06:19:48;;;;;;;83.67;41.83;;;;;;;;;;2056210;28;20166;-56
2022/01/16 06:20:48;;;;;;;89.60;43.77;;;;;;;;;;2057030;28;20607;-61
2022/01/16 06:21:49;;;;;;;95.97;44.23;;;;;;;;;;2056820;28;20648;-59
2022/01/16 06:22:49;;;;;;;92.33;43.73;;;;;;;;;;2056793;28;20221;-62
2022/01/16 06:23:49;;;;;;;93.23;43.40;;;;;;;;;;2057011;28;20186;-63
2022/01/16 06:24:50;;;;;;;92.90;43.77;;;;;;;;;;2057123;28;20585;-63
2022/01/16 06:25:54;;;;;;;90.97;46.20;;;;;;;;;;2056909;28;20174;-60
2022/01/16 06:26:55;;;;;;;94.13;43.87;;;;;;;;;;2056946;28;20230;-61
2022/01/16 06:27:55;;;;;;;89.03;42.37;;;;;;;;;;2056471;28;20432;-59
2022/01/16 06:28:55;;;;;;;86.70;43.63;;;;;;;;;;2056840;28;20655;-60
2022/01/16 06:29:56;;;;;;;85.33;41.07;;;;;;;;;;2055466;28;20190;-61
2022/01/16 06:30:56;;;;;;;89.67;43.60;;;;;;;;;;2056496;28;20194;-62
2022/01/16 06:31:56;;;;;;;96.10;45.07;;;;;;;;;;2056229;28;20321;-63
2022/01/16 06:32:56;;;;;;;90.00;41.53;;;;;;;;;;2056442;28;20182;-64
2022/01/16 06:34:00;;;;;;;98.40;45.27;;;;;;;;;;2056225;28;20269;-61
2022/01/16 06:35:00;;;;;;;81.30;42.67;;;;;;;;;;2055935;28;20192;-63
2022/01/16 06:36:01;;;;;;;97.40;45.87;;;;;;;;;;2056185;28;20178;-64
2022/01/16 06:37:02;;;;;;;92.50;45.27;;;;;;;;;;2056042;28;20236;-62
2022/01/16 06:38:02;;;;;;;94.27;44.80;;;;;;;;;;2055461;28;20233;-60
2022/01/16 06:39:06;;;;;;;92.40;45.33;;;;;;;;;;2055544;28;20564;-60